TimeMST,TemperatureF,Dew PointF,Humidity,Sea Level PressureIn,VisibilityMPH,Wind Direction,Wind SpeedMPH,Gust SpeedMPH,PrecipitationIn,Events,Conditions,WindDirDegrees,DateUTC
12:53 AM,66.0,59.0,78,29.92,10.0,SW,5.8,-,N/A,,Clear,230,2013-09-03 07:53:00
1:53 AM,64.0,57.9,80,29.91,10.0,Calm,Calm,-,N/A,,Clear,0,2013-09-03 08:53:00
2:53 AM,64.0,57.0,78,29.91,10.0,SW,3.5,-,N/A,,Clear,220,2013-09-03 09:53:00
3:53 AM,63.0,57.0,81,29.90,10.0,WSW,3.5,-,N/A,,Scattered Clouds,240,2013-09-03 10:53:00
4:53 AM,63.0,57.0,81,29.92,10.0,SSW,4.6,-,N/A,,Scattered Clouds,200,2013-09-03 11:53:00
5:53 AM,63.0,55.9,78,29.94,10.0,Calm,Calm,-,N/A,,Clear,0,2013-09-03 12:53:00
6:53 AM,63.0,55.9,78,29.97,10.0,Calm,Calm,-,N/A,,Partly Cloudy,0,2013-09-03 13:53:00
7:53 AM,68.0,59.0,73,29.97,10.0,NNW,4.6,-,N/A,,Partly Cloudy,330,2013-09-03 14:53:00
8:53 AM,71.1,60.1,68,29.98,10.0,North,6.9,-,N/A,,Partly Cloudy,350,2013-09-03 15:53:00
9:53 AM,75.9,57.9,54,29.97,10.0,North,3.5,-,N/A,,Partly Cloudy,360,2013-09-03 16:53:00
10:53 AM,81.0,55.9,42,29.96,10.0,North,4.6,-,N/A,,Clear,360,2013-09-03 17:53:00
11:53 AM,84.0,57.0,40,29.94,10.0,East,3.5,-,N/A,,Scattered Clouds,100,2013-09-03 18:53:00
12:53 PM,86.0,55.9,36,29.93,10.0,ENE,4.6,-,N/A,,Mostly Cloudy,70,2013-09-03 19:53:00
1:53 PM,84.9,52.0,32,29.91,10.0,Calm,Calm,-,N/A,,Mostly Cloudy,0,2013-09-03 20:53:00
2:53 PM,87.1,54.0,32,29.88,10.0,Variable,4.6,-,N/A,,Mostly Cloudy,0,2013-09-03 21:53:00
3:38 PM,84.2,53.6,35,30.12,10.0,NNW,6.9,-,N/A,Thunderstorm,Thunderstorm,330,2013-09-03 22:38:00
3:53 PM,81.0,54.0,39,29.89,10.0,West,13.8,21.9,N/A,Thunderstorm,Thunderstorm,270,2013-09-03 22:53:00
4:09 PM,73.4,53.6,50,30.14,10.0,WSW,24.2,29.9,N/A,Thunderstorm,Thunderstorm,250,2013-09-03 23:09:00
4:53 PM,78.1,52.0,40,29.91,10.0,West,9.2,-,N/A,Thunderstorm,Thunderstorm,260,2013-09-03 23:53:00
5:49 PM,80.6,48.2,32,30.14,10.0,WSW,17.3,28.8,0.00,Rain,Light Rain,250,2013-09-04 00:49:00
5:53 PM,82.0,46.9,29,29.89,10.0,West,10.4,24.2,0.00,,Mostly Cloudy,270,2013-09-04 00:53:00
6:53 PM,77.0,55.0,47,29.91,10.0,SW,9.2,-,0.00,,Scattered Clouds,230,2013-09-04 01:53:00
7:53 PM,75.9,54.0,46,29.94,10.0,SE,10.4,-,N/A,,Clear,140,2013-09-04 02:53:00
8:53 PM,73.0,55.0,53,29.94,10.0,South,6.9,-,N/A,,Clear,190,2013-09-04 03:53:00
9:53 PM,71.1,57.9,63,29.94,10.0,SSW,4.6,-,N/A,,Clear,200,2013-09-04 04:53:00
10:53 PM,70.0,57.0,63,29.93,10.0,South,5.8,-,N/A,,Clear,190,2013-09-04 05:53:00
11:53 PM,68.0,57.0,68,29.94,10.0,South,4.6,-,N/A,,Clear,180,2013-09-04 06:53:00